Time;durP1;ratioP1;P1;durP2;ratioP2;P2;SDS_P1;SDS_P2;PMS_P1;PMS_P2;Temp;Humidity;BMP_temperature;BMP_pressure;BME280_temperature;BME280_humidity;BME280_pressure;Samples;Min_cycle;Max_cycle;Signal;HPM_P1;HPM_P2
2021/01/21 00:01:42;;;;;;;2.10;0.90;;;15.70;56.50;;;;;;5035269;28;20052;-45
2021/01/21 00:04:08;;;;;;;1.08;0.60;;;15.80;56.60;;;;;;5034899;28;20037;-45
2021/01/21 00:06:34;;;;;;;1.58;0.80;;;15.70;56.60;;;;;;5035270;28;20053;-45
2021/01/21 00:09:00;;;;;;;2.65;1.20;;;15.70;56.60;;;;;;5035097;28;20029;-46
2021/01/21 00:11:26;;;;;;;1.02;0.73;;;15.70;56.70;;;;;;5035864;28;20045;-45
2021/01/21 00:13:52;;;;;;;1.10;0.77;;;15.70;56.70;;;;;;5035201;28;20025;-45
2021/01/21 00:16:17;;;;;;;1.17;0.70;;;15.70;56.70;;;;;;5034799;28;20595;-45
2021/01/21 00:18:43;;;;;;;1.30;0.80;;;15.70;56.70;;;;;;5035144;28;20033;-46
2021/01/21 00:21:09;;;;;;;0.80;0.60;;;15.70;56.70;;;;;;5035075;28;20010;-45
2021/01/21 00:23:35;;;;;;;0.70;0.70;;;15.70;56.80;;;;;;5034754;28;20629;-45
2021/01/21 00:26:00;;;;;;;1.23;0.70;;;16.00;57.00;;;;;;5035008;28;20091;-45
2021/01/21 00:28:26;;;;;;;1.60;0.93;;;15.70;56.90;;;;;;5034036;28;20065;-45
2021/01/21 00:30:52;;;;;;;1.27;0.93;;;15.60;56.80;;;;;;5034631;28;20067;-45
2021/01/21 00:33:18;;;;;;;1.20;0.65;;;15.70;57.50;;;;;;5034659;28;20030;-47
2021/01/21 00:35:44;;;;;;;1.48;0.70;;;15.60;56.90;;;;;;5034551;28;20021;-45
2021/01/21 00:38:10;;;;;;;2.05;1.02;;;15.60;57.00;;;;;;5034811;28;20025;-46
2021/01/21 00:40:35;;;;;;;0.95;0.63;;;15.60;57.00;;;;;;5034204;28;20053;-47
2021/01/21 00:43:01;;;;;;;2.88;0.88;;;15.60;57.10;;;;;;5034375;28;20025;-44
2021/01/21 00:45:26;;;;;;;0.80;0.60;;;15.60;57.20;;;;;;5034437;28;20113;-45
2021/01/21 00:47:53;;;;;;;0.80;0.63;;;15.60;57.10;;;;;;5034579;28;20029;-45
2021/01/21 00:50:18;;;;;;;0.90;0.70;;;15.60;57.20;;;;;;5034562;28;20030;-45
2021/01/21 00:52:44;;;;;;;1.33;0.85;;;15.70;57.20;;;;;;5034477;28;20020;-45
2021/01/21 00:55:10;;;;;;;1.58;0.80;;;15.60;57.30;;;;;;5034340;28;20372;-45
2021/01/21 00:57:36;;;;;;;2.08;1.00;;;15.60;57.30;;;;;;5034216;28;20043;-45
2021/01/21 01:00:12;;;;;;;1.20;0.70;;;15.80;57.40;;;;;;5033944;28;20022;-45
2021/01/21 01:02:38;;;;;;;0.93;0.70;;;15.50;57.30;;;;;;5034172;28;20029;-45
2021/01/21 01:05:06;;;;;;;1.60;0.80;;;15.50;57.40;;;;;;5016462;28;20084;-45
2021/01/21 01:07:31;;;;;;;0.85;0.70;;;15.50;57.40;;;;;;5033818;28;20022;-45
2021/01/21 01:09:57;;;;;;;0.93;0.70;;;15.50;57.40;;;;;;5033889;28;20387;-45
2021/01/21 01:12:23;;;;;;;1.13;0.80;;;15.50;57.50;;;;;;5034362;28;20049;-46
2021/01/21 01:14:48;;;;;;;1.13;1.00;;;15.50;57.50;;;;;;5033625;28;20060;-45
2021/01/21 01:17:14;;;;;;;2.35;0.73;;;15.50;57.50;;;;;;5034084;28;20032;-45
2021/01/21 01:19:40;;;;;;;1.02;0.70;;;15.50;57.60;;;;;;5034005;28;20430;-45
2021/01/21 01:22:05;;;;;;;0.95;0.73;;;15.50;57.60;;;;;;5033428;28;20037;-45
2021/01/21 01:24:31;;;;;;;1.55;0.77;;;15.50;57.60;;;;;;5033677;28;20037;-46
2021/01/21 01:27:03;;;;;;;1.40;0.77;;;15.40;57.60;;;;;;5033907;28;20018;-45
2021/01/21 01:29:28;;;;;;;0.82;0.60;;;15.20;57.50;;;;;;5033754;28;20021;-46
2021/01/21 01:32:01;;;;;;;0.77;0.60;;;15.40;57.60;;;;;;5033793;28;20022;-45
2021/01/21 01:34:26;;;;;;;0.90;0.80;;;15.40;57.60;;;;;;5033361;28;20475;-45
2021/01/21 01:36:52;;;;;;;0.80;0.73;;;15.40;57.60;;;;;;5033752;28;20171;-49
2021/01/21 01:39:17;;;;;;;0.77;0.60;;;15.40;57.70;;;;;;5032343;28;20391;-45
2021/01/21 01:41:43;;;;;;;1.17;0.80;;;15.40;57.70;;;;;;5033354;28;20056;-45
2021/01/21 01:44:08;;;;;;;0.70;0.60;;;15.40;57.70;;;;;;5033080;28;20036;-45
2021/01/21 01:46:34;;;;;;;1.15;0.70;;;15.40;76.70;;;;;;5033321;28;20030;-46
2021/01/21 01:49:00;;;;;;;1.45;0.70;;;15.30;57.80;;;;;;5033444;28;20021;-45
2021/01/21 01:51:28;;;;;;;1.10;0.68;;;15.40;57.80;;;;;;5033410;28;20108;-46
2021/01/21 01:53:54;;;;;;;1.25;0.70;;;15.40;57.80;;;;;;5033049;28;20029;-45
2021/01/21 01:56:20;;;;;;;1.35;0.50;;;15.30;57.80;;;;;;5033194;28;20026;-46
2021/01/21 01:58:46;;;;;;;1.02;0.68;;;15.30;57.80;;;;;;5032782;28;20383;-45
2021/01/21 02:01:13;;;;;;;1.27;0.50;;;15.30;57.90;;;;;;5033068;28;20017;-45
2021/01/21 02:03:39;;;;;;;1.13;0.80;;;15.30;57.90;;;;;;5032596;28;20080;-46
2021/01/21 02:06:06;;;;;;;1.05;0.50;;;15.10;57.80;;;;;;5033102;28;20041;-46
2021/01/21 02:08:32;;;;;;;1.52;1.05;;;15.30;57.90;;;;;;5033102;28;20025;-46
2021/01/21 02:11:05;;;;;;;1.35;0.63;;;15.50;58.00;;;;;;5032902;28;20542;-45
2021/01/21 02:13:46;;;;;;;0.65;0.60;;;15.30;58.00;;;;;;5033339;28;20133;-45
2021/01/21 02:16:23;;;;;;;;;;;15.30;58.00;;;;;;5015262;28;20504;-45
2021/01/21 02:19:15;;;;;;;1.02;0.73;;;15.30;58.00;;;;;;5032926;28;19958;-45
2021/01/21 02:22:06;;;;;;;0.80;0.70;;;15.30;58.10;;;;;;5032408;28;20029;-45
2021/01/21 02:25:00;;;;;;;0.93;0.77;;;15.30;58.00;;;;;;5032751;28;20041;-46
2021/01/21 02:27:32;;;;;;;1.38;0.60;;;15.30;58.10;;;;;;5032610;28;20029;-45
2021/01/21 02:30:06;;;;;;;1.17;0.70;;;15.20;58.10;;;;;;5032354;28;20036;-45
2021/01/21 02:32:47;;;;;;;1.20;0.73;;;15.20;58.10;;;;;;5032385;28;20021;-45
2021/01/21 02:35:18;;;;;;;1.27;0.68;;;15.30;58.20;;;;;;5031973;28;20017;-46
2021/01/21 02:37:51;;;;;;;1.55;0.68;;;15.20;58.20;;;;;;5032636;28;20375;-45
2021/01/21 02:40:17;;;;;;;0.73;0.70;;;15.20;58.20;;;;;;5032413;28;20026;-45
2021/01/21 02:42:48;;;;;;;1.10;0.60;;;15.20;58.20;;;;;;5014226;28;20689;-44
2021/01/21 02:45:14;;;;;;;1.60;0.70;;;15.20;58.20;;;;;;5032145;28;20027;-45
2021/01/21 02:47:41;;;;;;;2.20;0.60;;;15.20;58.20;;;;;;5014357;28;20349;-48
2021/01/21 02:50:08;;;;;;;1.10;0.60;;;15.20;58.30;;;;;;5031644;28;20534;-46
2021/01/21 02:52:40;;;;;;;2.65;1.25;;;15.20;58.90;;;;;;5032270;28;20018;-49
2021/01/21 02:55:24;;;;;;;1.08;0.70;;;15.00;58.20;;;;;;5032339;28;20036;-45
2021/01/21 02:58:11;;;;;;;1.73;0.70;;;15.10;58.20;;;;;;5032089;28;20379;-46
2021/01/21 03:00:38;;;;;;;0.77;0.60;;;15.20;58.30;;;;;;5032117;28;20036;-46
2021/01/21 03:03:22;;;;;;;1.70;0.77;;;15.20;58.50;;;;;;5031938;28;20116;-47
2021/01/21 03:05:54;;;;;;;0.75;0.68;;;15.20;58.50;;;;;;5031810;28;20034;-45
2021/01/21 03:08:20;;;;;;;0.52;0.45;;;15.20;58.50;;;;;;5014481;28;20046;-45
2021/01/21 03:10:52;;;;;;;1.23;0.63;;;15.20;58.60;;;;;;5032145;28;20064;-45
2021/01/21 03:13:18;;;;;;;0.60;0.60;;;15.40;58.70;;;;;;5032523;28;20050;-45
2021/01/21 03:15:50;;;;;;;1.88;0.65;;;15.10;58.60;;;;;;5032120;28;20495;-45
2021/01/21 03:18:16;;;;;;;1.50;0.73;;;15.20;58.70;;;;;;5031796;28;20033;-45
2021/01/21 03:20:41;;;;;;;1.15;0.70;;;15.10;58.60;;;;;;5031775;28;20032;-47
2021/01/21 03:23:07;;;;;;;1.95;0.60;;;15.10;58.60;;;;;;5032026;28;20033;-45
2021/01/21 03:25:32;;;;;;;1.48;0.65;;;15.10;58.70;;;;;;5031931;28;20033;-45
2021/01/21 03:27:58;;;;;;;2.22;0.60;;;;;;;;;;5031894;28;20491;-45
2021/01/21 03:30:24;;;;;;;1.27;0.68;;;15.10;58.30;;;;;;5031581;28;20075;-45
2021/01/21 03:32:49;;;;;;;0.68;0.52;;;15.10;58.80;;;;;;5031806;28;20047;-45
2021/01/21 03:35:15;;;;;;;2.70;1.63;;;15.10;58.80;;;;;;5031453;28;20052;-46
2021/01/21 03:37:40;;;;;;;1.42;0.80;;;14.90;58.70;;;;;;5031837;28;20025;-45
2021/01/21 03:40:07;;;;;;;0.80;0.50;;;15.10;58.70;;;;;;5031729;28;20444;-46
2021/01/21 03:42:32;;;;;;;1.77;0.50;;;15.10;58.70;;;;;;5031381;28;20037;-46
2021/01/21 03:44:58;;;;;;;1.45;0.88;;;15.10;58.70;;;;;;5031566;28;20025;-46
2021/01/21 03:47:23;;;;;;;3.05;0.60;;;15.10;58.70;;;;;;5031072;28;20472;-45
2021/01/21 03:49:49;;;;;;;0.85;0.50;;;15.10;58.70;;;;;;5031372;28;20017;-46
2021/01/21 03:52:14;;;;;;;1.40;0.57;;;15.10;58.70;;;;;;5031701;28;20072;-45
2021/01/21 03:54:40;;;;;;;2.08;0.60;;;15.00;58.70;;;;;;5031434;28;20031;-46
2021/01/21 03:57:05;;;;;;;1.90;0.70;;;15.20;58.90;;;;;;5031446;28;20106;-46
2021/01/21 03:59:31;;;;;;;1.00;0.55;;;15.10;58.80;;;;;;5031438;28;20057;-45
2021/01/21 04:01:57;;;;;;;1.42;0.82;;;15.00;58.80;;;;;;5031913;28;20040;-46
2021/01/21 04:04:22;;;;;;;0.70;0.40;;;15.00;58.80;;;;;;5035024;28;20037;-46
2021/01/21 04:06:48;;;;;;;1.75;0.65;;;15.00;58.80;;;;;;5035067;28;20025;-44
2021/01/21 04:09:13;;;;;;;1.70;0.50;;;15.00;58.70;;;;;;5034944;28;20023;-45
2021/01/21 04:11:39;;;;;;;0.82;0.50;;;15.00;58.80;;;;;;5035922;28;20025;-45
2021/01/21 04:14:05;;;;;;;0.82;0.50;;;15.00;58.70;;;;;;5035200;28;20090;-48
2021/01/21 04:16:30;;;;;;;1.20;0.57;;;15.00;58.80;;;;;;5034983;28;20022;-44
2021/01/21 04:18:56;;;;;;;1.98;0.63;;;15.00;58.80;;;;;;5035094;28;20037;-45
2021/01/21 04:21:21;;;;;;;1.23;0.60;;;15.00;58.80;;;;;;5034998;28;20029;-46
2021/01/21 04:23:47;;;;;;;1.65;0.70;;;15.00;58.90;;;;;;5034637;28;20039;-46
2021/01/21 04:26:13;;;;;;;1.48;0.50;;;15.00;58.80;;;;;;5034947;28;20109;-46
2021/01/21 04:28:38;;;;;;;0.80;0.40;;;15.00;58.80;;;;;;5034919;28;20029;-45
2021/01/21 04:31:04;;;;;;;1.58;0.60;;;15.00;58.90;;;;;;5034828;28;20468;-45
2021/01/21 04:33:29;;;;;;;1.60;0.82;;;15.00;58.80;;;;;;5034841;28;20096;-45
2021/01/21 04:35:55;;;;;;;1.60;0.85;;;14.90;58.90;;;;;;5034823;28;20028;-45
2021/01/21 04:38:20;;;;;;;1.23;0.50;;;15.00;58.90;;;;;;5016782;28;20030;-45
2021/01/21 04:40:47;;;;;;;2.33;0.40;;;15.00;58.90;;;;;;5016801;28;20468;-45
2021/01/21 04:43:12;;;;;;;1.20;0.40;;;14.90;58.90;;;;;;5034415;28;20033;-45
2021/01/21 04:45:38;;;;;;;0.90;0.57;;;15.00;58.90;;;;;;5034686;28;20087;-45
2021/01/21 04:48:05;;;;;;;1.40;0.73;;;15.00;58.90;;;;;;5034284;28;20037;-46
2021/01/21 04:50:33;;;;;;;1.10;0.55;;;14.90;59.00;;;;;;5034184;28;20357;-45
2021/01/21 04:53:00;;;;;;;2.63;0.80;;;14.90;59.00;;;;;;5034047;28;20499;-44
2021/01/21 04:55:34;;;;;;;2.40;0.70;;;14.90;58.90;;;;;;5034245;28;20084;-45
2021/01/21 04:58:25;;;;;;;0.63;0.43;;;14.90;59.00;;;;;;5034407;28;20376;-45
2021/01/21 05:00:50;;;;;;;2.00;0.57;;;14.90;59.00;;;;;;5034357;28;20025;-45
2021/01/21 05:03:17;;;;;;;1.23;0.40;;;14.90;59.10;;;;;;5034324;28;20497;-45
2021/01/21 05:05:43;;;;;;;1.42;0.68;;;14.90;59.10;;;;;;5034176;28;20029;-45
2021/01/21 05:08:09;;;;;;;2.35;0.77;;;14.90;59.10;;;;;;5033677;28;20026;-45
2021/01/21 05:10:35;;;;;;;0.60;0.47;;;14.90;59.00;;;;;;5034070;28;20079;-47
2021/01/21 05:13:01;;;;;;;1.05;0.50;;;14.90;59.00;;;;;;5034402;28;20042;-45
2021/01/21 05:15:27;;;;;;;2.47;0.63;;;14.90;59.00;;;;;;5033654;28;20033;-45
2021/01/21 05:17:53;;;;;;;2.55;0.65;;;14.80;59.00;;;;;;5033837;28;20022;-46
2021/01/21 05:20:23;;;;;;;1.02;0.50;;;14.90;59.00;;;;;;5033819;28;20039;-45
2021/01/21 05:22:55;;;;;;;1.80;0.60;;;14.90;59.00;;;;;;5033652;28;20103;-45
2021/01/21 05:25:20;;;;;;;1.90;0.70;;;14.90;59.00;;;;;;5033840;28;20025;-45
2021/01/21 05:27:46;;;;;;;1.70;0.60;;;14.80;58.90;;;;;;5033731;28;20171;-45
2021/01/21 05:30:14;;;;;;;2.17;0.73;;;14.80;58.90;;;;;;5033720;28;20061;-46
2021/01/21 05:32:40;;;;;;;0.95;0.52;;;14.80;58.90;;;;;;5033614;28;20029;-45
2021/01/21 05:35:07;;;;;;;1.58;0.60;;;14.80;58.90;;;;;;5033647;28;20071;-45
2021/01/21 05:37:38;;;;;;;2.03;0.63;;;14.80;58.90;;;;;;5033314;28;20361;-45
2021/01/21 05:40:06;;;;;;;2.33;0.63;;;14.80;58.90;;;;;;5033204;28;20033;-45
2021/01/21 05:42:35;;;;;;;3.15;0.60;;;14.80;59.10;;;;;;5033034;28;20029;-45
2021/01/21 05:45:02;;;;;;;1.70;0.75;;;14.80;59.10;;;;;;5033557;28;20026;-45
2021/01/21 05:47:28;;;;;;;1.55;0.57;;;15.10;59.20;;;;;;5033310;28;20021;-46
2021/01/21 05:49:54;;;;;;;1.83;0.47;;;14.80;59.20;;;;;;5033340;28;20032;-45
2021/01/21 05:52:20;;;;;;;2.55;0.57;;;14.80;59.20;;;;;;5033334;28;20025;-45
2021/01/21 05:54:49;;;;;;;3.63;0.90;;;14.80;59.20;;;;;;5033153;28;20021;-45
2021/01/21 05:57:15;;;;;;;2.13;0.52;;;14.80;59.20;;;;;;5033003;28;20025;-45
2021/01/21 05:59:40;;;;;;;3.08;0.45;;;14.80;60.00;;;;;;5033226;28;20060;-45
2021/01/21 06:02:06;;;;;;;2.67;0.55;;;14.80;59.30;;;;;;5032935;28;20140;-47
2021/01/21 06:04:35;;;;;;;1.17;0.43;;;15.00;59.40;;;;;;5032776;28;20048;-45
2021/01/21 06:07:01;;;;;;;2.65;0.52;;;14.80;59.50;;;;;;5032758;28;20071;-45
2021/01/21 06:09:31;;;;;;;1.25;0.50;;;14.80;79.30;;;;;;4998664;28;20521;-46
2021/01/21 06:12:16;;;;;;;1.38;0.70;;;14.90;59.40;;;;;;5033488;28;20140;-45
2021/01/21 06:14:42;;;;;;;2.72;0.70;;;17.50;60.70;;;;;;5032626;28;20045;-45
2021/01/21 06:17:07;;;;;;;2.00;0.98;;;15.10;59.20;;;;;;5014893;28;20018;-47
2021/01/21 06:19:33;;;;;;;0.85;0.40;;;15.20;59.20;;;;;;5032703;28;20105;-45
2021/01/21 06:22:09;;;;;;;1.27;0.57;;;15.20;59.00;;;;;;5032854;28;20071;-44
2021/01/21 06:24:43;;;;;;;1.83;0.70;;;15.20;58.90;;;;;;5032149;28;20045;-45
2021/01/21 06:27:10;;;;;;;1.63;0.75;;;15.30;58.70;;;;;;5032542;28;20074;-45
2021/01/21 06:29:36;;;;;;;1.17;0.45;;;15.40;58.70;;;;;;5032586;28;20037;-47
2021/01/21 06:32:03;;;;;;;0.93;0.52;;;15.40;58.50;;;;;;5015181;28;20432;-46
2021/01/21 06:34:33;;;;;;;1.52;0.70;;;15.50;58.50;;;;;;5032154;28;20534;-45
2021/01/21 06:37:16;;;;;;;1.40;0.77;;;15.50;58.40;;;;;;5032542;28;20029;-45
2021/01/21 06:39:53;;;;;;;2.33;0.60;;;15.50;58.30;;;;;;5032223;28;20021;-45
2021/01/21 06:42:32;;;;;;;1.92;0.70;;;15.50;58.20;;;;;;5032286;28;20045;-44
2021/01/21 06:44:58;;;;;;;1.90;0.57;;;15.60;58.20;;;;;;5032477;28;20148;-45
2021/01/21 06:47:25;;;;;;;2.35;0.68;;;15.60;58.10;;;;;;5032404;28;20049;-45
2021/01/21 06:49:59;;;;;;;2.63;0.75;;;15.60;58.00;;;;;;5032325;28;20334;-45
2021/01/21 06:52:27;;;;;;;2.15;0.70;;;15.60;58.20;;;;;;5032480;28;20080;-44
2021/01/21 06:54:53;;;;;;;0.80;0.47;;;15.90;58.10;;;;;;5032121;28;20096;-48
2021/01/21 06:57:39;;;;;;;1.75;0.60;;;15.60;58.00;;;;;;5032476;28;20104;-48
2021/01/21 07:00:08;;;;;;;1.80;0.60;;;15.70;58.40;;;;;;5014807;28;20064;-45
2021/01/21 07:02:49;;;;;;;4.97;0.93;;;15.60;58.20;;;;;;5014034;28;20045;-44
2021/01/21 07:05:20;;;;;;;5.10;0.85;;;15.60;58.30;;;;;;5031906;28;20033;-44
2021/01/21 07:08:00;;;;;;;3.28;0.98;;;15.60;58.30;;;;;;5032011;28;20412;-44
2021/01/21 07:10:42;;;;;;;2.45;0.82;;;15.60;58.20;;;;;;5031893;28;20029;-45
2021/01/21 07:13:09;;;;;;;1.70;0.57;;;15.60;58.20;;;;;;5032664;28;20116;-45
2021/01/21 07:15:41;;;;;;;0.80;0.50;;;15.60;58.10;;;;;;5031798;28;20083;-44
2021/01/21 07:18:16;;;;;;;2.78;0.60;;;15.70;58.10;;;;;;5031945;28;20037;-44
2021/01/21 07:21:00;;;;;;;2.25;0.70;;;15.70;58.10;;;;;;5032055;28;20026;-44
2021/01/21 07:23:45;;;;;;;1.70;0.65;;;15.60;58.00;;;;;;5031742;28;20048;-44
2021/01/21 07:26:18;;;;;;;1.42;0.60;;;15.60;58.00;;;;;;5031950;28;20109;-44
2021/01/21 07:28:55;;;;;;;1.83;0.75;;;15.70;58.00;;;;;;5032159;28;20052;-45
2021/01/21 07:31:21;;;;;;;1.02;0.50;;;15.70;58.00;;;;;;5032108;28;20026;-44
2021/01/21 07:33:46;;;;;;;1.67;0.30;;;15.60;57.80;;;;;;5031995;28;20365;-46
2021/01/21 07:36:32;;;;;;;4.20;0.60;;;15.70;57.80;;;;;;5030529;28;20075;-45
2021/01/21 07:38:58;;;;;;;4.72;0.80;;;15.70;57.90;;;;;;5033100;28;20388;-45
2021/01/21 07:41:41;;;;;;;1.77;0.65;;;15.70;57.90;;;;;;5033729;28;20040;-46
2021/01/21 07:44:07;;;;;;;1.40;0.63;;;15.70;58.00;;;;;;5033567;28;20041;-46
2021/01/21 07:46:33;;;;;;;1.27;0.55;;;15.70;58.00;;;;;;5033831;28;20028;-45
2021/01/21 07:49:21;;;;;;;1.60;0.60;;;15.70;57.90;;;;;;5033850;28;20143;-46
2021/01/21 07:52:00;;;;;;;2.25;0.50;;;15.70;57.80;;;;;;5034081;28;20033;-45
2021/01/21 07:54:27;;;;;;;3.30;0.90;;;15.70;57.80;;;;;;5034105;28;20030;-45
2021/01/21 07:56:53;;;;;;;2.30;0.65;;;15.80;57.80;;;;;;5035627;28;20026;-45
2021/01/21 07:59:19;;;;;;;3.35;0.70;;;15.80;57.70;;;;;;5035692;28;20045;-45
2021/01/21 08:02:00;;;;;;;2.78;0.60;;;15.80;57.70;;;;;;5017795;28;20079;-44
2021/01/21 08:04:26;;;;;;;1.92;0.90;;;15.80;57.70;;;;;;5035601;28;20033;-45
2021/01/21 08:06:57;;;;;;;1.83;0.60;;;15.80;57.70;;;;;;5035376;28;20545;-45
2021/01/21 08:09:24;;;;;;;3.05;0.60;;;15.70;57.60;;;;;;5035340;28;20109;-45
2021/01/21 08:11:50;;;;;;;2.92;0.73;;;15.70;57.80;;;;;;5035116;28;20018;-45
2021/01/21 08:14:17;;;;;;;1.15;0.70;;;15.70;57.90;;;;;;5035761;28;20134;-45
2021/01/21 08:16:44;;;;;;;1.52;0.77;;;15.60;58.00;;;;;;5035408;28;20013;-45
2021/01/21 08:19:11;;;;;;;2.35;0.50;;;;;;;;;;5035277;28;20026;-45
2021/01/21 08:21:37;;;;;;;2.75;0.40;;;15.70;57.70;;;;;;5035347;28;20037;-45
2021/01/21 08:24:08;;;;;;;2.55;0.68;;;15.70;58.20;;;;;;5035306;28;20068;-47
2021/01/21 08:26:36;;;;;;;3.28;1.00;;;15.60;58.10;;;;;;5035340;28;20041;-45
2021/01/21 08:29:03;;;;;;;2.75;0.90;;;15.70;58.00;;;;;;5035189;28;20021;-45
2021/01/21 08:31:44;;;;;;;2.65;0.73;;;15.70;58.00;;;;;;5034911;28;20107;-45
2021/01/21 08:34:23;;;;;;;2.95;1.05;;;15.60;57.80;;;;;;5034754;28;20075;-46
2021/01/21 08:36:49;;;;;;;3.50;0.98;;;15.60;57.80;;;;;;5034565;28;20021;-45
2021/01/21 08:39:15;;;;;;;3.70;0.90;;;15.60;57.80;;;;;;5034622;28;20488;-47
2021/01/21 08:41:42;;;;;;;1.90;0.82;;;15.60;57.90;;;;;;5034590;28;20029;-45
2021/01/21 08:44:17;;;;;;;2.35;1.10;;;15.60;57.80;;;;;;5034481;28;20033;-45
2021/01/21 08:46:42;;;;;;;2.47;0.82;;;15.60;57.90;;;;;;5034576;28;20029;-45
2021/01/21 08:49:12;;;;;;;2.08;0.70;;;15.50;57.90;;;;;;5033644;28;20029;-44
2021/01/21 08:51:41;;;;;;;3.22;0.65;;;15.50;57.90;;;;;;5034545;28;20022;-43
2021/01/21 08:54:13;;;;;;;2.60;0.70;;;15.50;58.00;;;;;;5034442;28;20040;-46
2021/01/21 08:56:40;;;;;;;2.83;0.90;;;15.50;58.10;;;;;;5034587;28;20041;-45
2021/01/21 08:59:25;;;;;;;3.40;0.85;;;15.50;58.00;;;;;;5034459;28;20026;-43
2021/01/21 09:01:51;;;;;;;2.30;0.68;;;15.50;57.90;;;;;;5034413;28;20021;-44
2021/01/21 09:04:28;;;;;;;3.30;1.02;;;15.50;57.90;;;;;;5034321;28;20438;-44
2021/01/21 09:06:59;;;;;;;2.35;0.80;;;15.50;57.90;;;;;;5034388;28;20021;-44
2021/01/21 09:09:30;;;;;;;1.95;0.70;;;15.50;57.80;;;;;;5034232;28;20053;-45
2021/01/21 09:11:57;;;;;;;3.08;1.13;;;15.50;57.80;;;;;;5033940;28;20025;-44
2021/01/21 09:14:23;;;;;;;2.45;1.00;;;15.50;57.80;;;;;;5034572;28;20049;-44
2021/01/21 09:16:54;;;;;;;1.98;0.90;;;15.50;57.80;;;;;;5033776;28;20021;-44
2021/01/21 09:19:25;;;;;;;3.90;0.60;;;15.50;57.70;;;;;;5034041;28;20025;-42
2021/01/21 09:22:01;;;;;;;2.45;0.82;;;15.60;57.70;;;;;;5033656;28;20052;-41
2021/01/21 09:24:26;;;;;;;4.63;0.82;;;15.60;57.70;;;;;;5033587;28;20040;-41
2021/01/21 09:27:13;;;;;;;4.57;1.40;;;15.60;57.70;;;;;;5033381;28;20021;-43
2021/01/21 09:29:45;;;;;;;3.85;0.90;;;15.60;57.80;;;;;;5033492;28;20025;-44
2021/01/21 09:32:10;;;;;;;6.57;1.05;;;15.60;57.70;;;;;;5033425;28;20025;-44
2021/01/21 09:34:36;;;;;;;5.35;1.33;;;15.60;57.70;;;;;;5033685;28;20540;-44
2021/01/21 09:37:01;;;;;;;10.93;1.02;;;15.60;57.60;;;;;;5033642;28;20562;-46
2021/01/21 09:39:27;;;;;;;4.25;1.27;;;15.60;57.50;;;;;;5033453;28;20550;-44
2021/01/21 09:41:52;;;;;;;4.13;1.00;;;15.60;57.50;;;;;;5033309;28;20017;-44
2021/01/21 09:44:18;;;;;;;3.55;1.02;;;15.90;57.50;;;;;;5015770;28;20522;-44
2021/01/21 09:46:43;;;;;;;5.15;1.38;;;15.60;57.30;;;;;;4999538;28;20490;-43
2021/01/21 09:49:09;;;;;;;5.07;0.80;;;15.70;57.20;;;;;;5033458;28;20536;-43
2021/01/21 09:51:34;;;;;;;4.38;1.00;;;15.50;56.90;;;;;;5033027;28;20408;-43
2021/01/21 09:54:00;;;;;;;3.97;1.20;;;15.70;57.00;;;;;;5033194;28;20381;-43
2021/01/21 09:56:25;;;;;;;4.78;1.15;;;15.80;56.90;;;;;;5033088;28;20041;-43
2021/01/21 09:58:51;;;;;;;4.45;0.98;;;15.80;56.70;;;;;;5033028;28;20034;-43
2021/01/21 10:01:16;;;;;;;6.40;1.17;;;15.90;56.60;;;;;;5032288;28;20037;-43
2021/01/21 10:03:42;;;;;;;4.97;1.50;;;15.90;56.50;;;;;;5032726;28;20042;-43
2021/01/21 10:06:07;;;;;;;6.22;1.48;;;16.00;56.40;;;;;;5032796;28;20022;-43
2021/01/21 10:08:33;;;;;;;3.53;1.17;;;16.10;56.10;;;;;;5033001;28;20025;-43
2021/01/21 10:10:59;;;;;;;13.73;1.55;;;16.10;55.90;;;;;;5033241;28;20022;-43
2021/01/21 10:13:24;;;;;;;2.15;0.80;;;16.20;55.80;;;;;;5033519;28;20049;-42
2021/01/21 10:15:50;;;;;;;3.38;1.30;;;16.20;55.70;;;;;;5033049;28;20025;-43
2021/01/21 10:18:15;;;;;;;3.50;0.82;;;16.20;55.60;;;;;;5032539;28;20021;-43
2021/01/21 10:20:41;;;;;;;3.00;0.90;;;16.20;55.60;;;;;;5032564;28;20069;-42
2021/01/21 10:23:06;;;;;;;4.13;0.85;;;16.20;55.60;;;;;;5032466;28;20049;-43
2021/01/21 10:25:32;;;;;;;4.72;1.20;;;16.20;55.60;;;;;;5032859;28;20022;-43
2021/01/21 10:27:57;;;;;;;3.20;0.80;;;16.20;55.70;;;;;;5032766;28;20528;-42
2021/01/21 10:30:23;;;;;;;3.85;1.00;;;16.10;55.70;;;;;;5032749;28;20041;-43
2021/01/21 10:32:49;;;;;;;3.38;1.00;;;16.10;55.70;;;;;;5032698;28;20687;-43
2021/01/21 10:35:14;;;;;;;3.42;1.00;;;16.10;55.50;;;;;;5032604;28;20022;-44
2021/01/21 10:37:40;;;;;;;3.50;0.85;;;16.30;55.70;;;;;;5032304;28;20028;-43
2021/01/21 10:40:07;;;;;;;5.95;0.93;;;16.00;55.60;;;;;;5032395;28;20072;-44
2021/01/21 10:42:32;;;;;;;4.28;0.95;;;16.00;55.60;;;;;;5032257;28;20017;-42
2021/01/21 10:44:58;;;;;;;2.30;0.68;;;15.90;75.00;;;;;;5031875;28;20041;-43
2021/01/21 10:47:24;;;;;;;6.20;1.23;;;15.90;55.70;;;;;;5032526;28;20040;-43
2021/01/21 10:49:50;;;;;;;6.88;1.30;;;15.80;55.70;;;;;;5032317;28;20025;-45
2021/01/21 10:52:16;;;;;;;3.40;1.00;;;15.90;55.90;;;;;;5032058;28;20063;-45
2021/01/21 10:54:41;;;;;;;3.30;0.95;;;15.80;56.10;;;;;;5031900;28;20057;-45
2021/01/21 10:57:07;;;;;;;2.83;0.82;;;15.90;56.10;;;;;;5032042;28;20029;-44
2021/01/21 10:59:33;;;;;;;3.53;0.88;;;15.60;56.00;;;;;;5032234;28;20048;-44
2021/01/21 11:01:58;;;;;;;3.10;0.80;;;15.80;56.20;;;;;;5032362;28;20025;-44
2021/01/21 11:04:24;;;;;;;4.35;1.02;;;15.80;56.20;;;;;;5031902;28;20021;-46
2021/01/21 11:06:50;;;;;;;3.55;1.15;;;15.80;56.10;;;;;;5031979;28;20017;-43
2021/01/21 11:09:15;;;;;;;5.82;0.98;;;15.70;56.20;;;;;;5032022;28;20018;-43
2021/01/21 11:11:41;;;;;;;4.75;1.50;;;15.70;56.20;;;;;;5031569;28;20188;-43
2021/01/21 11:14:07;;;;;;;4.88;1.25;;;15.70;56.20;;;;;;5032238;28;20192;-42
2021/01/21 11:16:32;;;;;;;3.22;0.82;;;15.70;56.10;;;;;;5031795;28;20096;-42
2021/01/21 11:18:58;;;;;;;3.17;0.93;;;15.70;56.10;;;;;;5031792;28;20034;-42
2021/01/21 11:21:23;;;;;;;3.65;0.95;;;15.70;56.00;;;;;;5031600;28;20021;-42
2021/01/21 11:23:49;;;;;;;3.58;0.88;;;15.70;56.00;;;;;;5031958;28;20041;-42
2021/01/21 11:26:14;;;;;;;4.30;1.08;;;15.70;56.00;;;;;;5032023;28;20022;-43
2021/01/21 11:28:40;;;;;;;5.90;1.42;;;15.70;55.90;;;;;;5032047;28;20022;-43
2021/01/21 11:31:05;;;;;;;4.50;0.90;;;15.70;55.90;;;;;;5031690;28;20021;-43
2021/01/21 11:33:31;;;;;;;3.33;0.80;;;15.70;55.90;;;;;;5032099;28;20104;-42
2021/01/21 11:35:57;;;;;;;4.20;1.13;;;16.00;56.00;;;;;;5031772;28;20472;-42
2021/01/21 11:38:22;;;;;;;7.93;1.00;;;15.70;55.80;;;;;;5031956;28;20021;-43
2021/01/21 11:40:48;;;;;;;4.50;0.88;;;15.70;56.50;;;;;;5031820;28;20476;-42
2021/01/21 11:43:13;;;;;;;4.10;0.95;;;15.70;55.90;;;;;;5013555;28;20112;-42
2021/01/21 11:45:39;;;;;;;2.30;0.68;;;15.70;56.00;;;;;;5031494;28;20021;-42
2021/01/21 11:48:05;;;;;;;4.30;0.88;;;15.70;56.00;;;;;;5031550;28;20017;-48
2021/01/21 11:50:31;;;;;;;3.88;1.08;;;15.60;56.00;;;;;;5031489;28;20032;-45
2021/01/21 11:52:57;;;;;;;4.60;1.65;;;15.70;56.00;;;;;;5031701;28;20427;-46
2021/01/21 11:55:23;;;;;;;6.22;1.08;;;;;;;;;;5031536;28;20025;-47
2021/01/21 11:57:49;;;;;;;3.53;0.80;;;15.60;55.70;;;;;;5031847;28;20384;-44
2021/01/21 12:00:15;;;;;;;3.03;0.85;;;15.70;55.80;;;;;;5031737;28;20022;-47
2021/01/21 12:02:41;;;;;;;3.05;1.02;;;15.70;55.70;;;;;;5031680;28;20102;-43
2021/01/21 12:05:08;;;;;;;3.65;0.85;;;15.70;56.10;;;;;;5030996;28;20037;-46
2021/01/21 12:07:33;;;;;;;3.90;0.90;;;15.80;55.90;;;;;;5031365;28;20064;-45
2021/01/21 12:09:59;;;;;;;4.95;0.88;;;15.80;55.70;;;;;;5031493;28;20049;-47
2021/01/21 12:12:31;;;;;;;5.90;1.27;;;15.90;55.80;;;;;;5032326;28;20502;-46
2021/01/21 12:14:57;;;;;;;5.30;1.35;;;15.90;55.70;;;;;;5011377;28;20535;-45
2021/01/21 12:17:23;;;;;;;3.50;1.08;;;16.00;55.60;;;;;;5011593;28;20025;-47
2021/01/21 12:19:48;;;;;;;7.85;0.80;;;16.10;55.60;;;;;;5011730;28;20022;-45
2021/01/21 12:22:14;;;;;;;7.20;1.00;;;16.10;55.60;;;;;;5011797;28;20095;-44
2021/01/21 12:24:40;;;;;;;2.10;0.65;;;16.20;55.80;;;;;;5014256;28;20041;-47
2021/01/21 12:27:06;;;;;;;3.22;0.85;;;16.20;55.40;;;;;;5014869;28;20030;-43
2021/01/21 12:29:31;;;;;;;3.70;0.80;;;16.40;55.40;;;;;;5014891;28;20088;-46
2021/01/21 12:31:57;;;;;;;2.17;0.77;;;16.30;55.50;;;;;;5014382;28;20076;-46
2021/01/21 12:34:23;;;;;;;1.52;0.60;;;16.30;55.40;;;;;;5013198;28;20036;-44
2021/01/21 12:36:49;;;;;;;2.45;0.82;;;16.30;55.60;;;;;;5013004;28;20022;-48
2021/01/21 12:39:15;;;;;;;2.90;0.80;;;16.30;55.50;;;;;;5013148;28;20058;-46
2021/01/21 12:41:41;;;;;;;5.72;1.27;;;16.30;55.30;;;;;;5015107;28;20022;-45
2021/01/21 12:44:07;;;;;;;3.47;0.70;;;16.10;75.60;;;;;;5014820;28;20060;-47
2021/01/21 12:46:32;;;;;;;5.50;1.65;;;16.60;57.00;;;;;;5015024;28;20483;-46
2021/01/21 12:48:58;;;;;;;2.45;0.70;;;16.30;58.10;;;;;;5014835;28;20037;-47
2021/01/21 12:51:23;;;;;;;4.45;1.40;;;16.30;59.20;;;;;;5014436;28;20022;-47
2021/01/21 12:53:50;;;;;;;3.65;1.00;;;16.30;59.50;;;;;;5014692;28;20109;-46